Time;durP1;ratioP1;P1;durP2;ratioP2;P2;SDS_P1;SDS_P2;PMS_P1;PMS_P2;Temp;Humidity;BMP_temperature;BMP_pressure;BME280_temperature;BME280_humidity;BME280_pressure;Samples;Min_cycle;Max_cycle;Signal;HPM_P1;HPM_P2
2021/08/31 00:01:53;;;;;;;7.70;6.00;;;;;;;14.35;85.50;102277.88;6315619;28;20206;-74
2021/08/31 00:04:59;;;;;;;6.25;5.65;;;;;;;14.25;85.88;102280.94;6315088;28;20235;-74
2021/08/31 00:08:05;;;;;;;6.95;5.43;;;;;;;14.19;86.52;102283.69;6315185;28;20183;-74
2021/08/31 00:11:11;;;;;;;9.98;6.35;;;;;;;14.16;86.96;102289.59;6314050;28;20497;-74
2021/08/31 00:14:16;;;;;;;6.82;5.90;;;;;;;14.15;86.71;102282.41;6313886;28;20562;-74
2021/08/31 00:17:22;;;;;;;6.35;5.75;;;;;;;14.13;86.97;102284.50;6313917;28;20260;-74
2021/08/31 00:20:31;;;;;;;6.20;5.60;;;;;;;14.15;87.23;102287.91;6315248;28;20183;-74
2021/08/31 00:23:36;;;;;;;6.82;6.15;;;;;;;14.14;87.63;102286.19;6313326;28;20246;-74
2021/08/31 00:26:40;;;;;;;6.72;5.47;;;;;;;14.11;87.95;102281.97;6314657;28;20212;-74
2021/08/31 00:29:46;;;;;;;8.77;6.40;;;;;;;14.05;88.05;102287.41;6313573;28;20229;-74
2021/08/31 00:32:50;;;;;;;7.85;6.13;;;;;;;14.13;87.53;102290.84;6314836;28;20183;-74
2021/08/31 00:35:54;;;;;;;8.73;6.38;;;;;;;13.99;88.08;102288.25;6314043;28;20191;-74
2021/08/31 00:39:00;;;;;;;6.70;6.00;;;;;;;13.95;88.40;102297.94;6314276;28;20199;-74
2021/08/31 00:42:05;;;;;;;7.93;6.45;;;;;;;13.87;88.53;102296.19;6313407;28;20374;-74
2021/08/31 00:45:11;;;;;;;9.35;6.10;;;;;;;13.91;88.35;102296.66;6313023;28;20549;-74
2021/08/31 00:48:17;;;;;;;7.88;6.72;;;;;;;13.84;88.45;102296.59;6314402;28;20183;-74
2021/08/31 00:51:24;;;;;;;8.27;6.22;;;;;;;13.78;88.44;102302.94;6314073;28;20191;-74
2021/08/31 00:54:30;;;;;;;9.85;5.90;;;;;;;13.80;88.78;102295.34;6312926;28;20376;-74
2021/08/31 00:57:34;;;;;;;8.73;5.45;;;;;;;13.84;88.19;102290.28;6313851;28;20263;-74
2021/08/31 01:00:41;;;;;;;7.53;5.97;;;;;;;13.80;88.44;102296.19;6312872;28;20405;-75
2021/08/31 01:03:45;;;;;;;10.52;6.20;;;;;;;13.73;88.49;102300.78;6313178;28;20301;-74
2021/08/31 01:06:52;;;;;;;9.10;6.57;;;;;;;13.76;88.46;102311.34;6312571;28;20314;-74
2021/08/31 01:10:01;;;;;;;10.10;5.80;;;;;;;13.81;87.97;102319.81;6312514;28;20534;-74
2021/08/31 01:13:07;;;;;;;8.07;6.30;;;;;;;13.76;87.80;102305.03;6313102;28;20191;-74
2021/08/31 01:16:14;;;;;;;8.88;6.47;;;;;;;13.71;88.26;102308.34;6312409;28;20353;-74
2021/08/31 01:19:23;;;;;;;8.68;6.18;;;;;;;13.62;88.40;102315.06;6313603;28;20219;-74
2021/08/31 01:22:27;;;;;;;8.10;6.40;;;;;;;13.63;88.58;102327.75;6313370;28;20279;-74
2021/08/31 01:25:33;;;;;;;6.97;6.28;;;;;;;13.66;88.55;102326.50;6313253;28;20262;-74
2021/08/31 01:28:39;;;;;;;8.18;6.10;;;;;;;13.52;89.02;102325.53;6313117;28;20263;-74
2021/08/31 01:31:43;;;;;;;6.70;5.88;;;;;;;13.63;88.85;102327.75;6312264;28;20467;-74
2021/08/31 01:34:47;;;;;;;9.55;6.40;;;;;;;13.49;89.47;102320.47;6312091;28;20183;-74
2021/08/31 01:37:52;;;;;;;8.30;6.00;;;;;;;13.47;89.20;102316.22;6311950;28;20209;-74
2021/08/31 01:40:57;;;;;;;7.50;5.70;;;;;;;13.58;88.83;102302.81;6313206;28;20183;-74
2021/08/31 01:44:01;;;;;;;9.20;6.18;;;;;;;13.49;88.94;102312.25;6311710;28;20475;-74
2021/08/31 01:47:05;;;;;;;8.02;5.82;;;;;;;13.48;89.13;102310.53;6313075;28;20214;-74
2021/08/31 01:50:11;;;;;;;11.32;6.40;;;;;;;13.49;88.88;102309.50;6312650;28;20275;-74
2021/08/31 01:53:16;;;;;;;8.23;5.43;;;;;;;13.47;88.39;102310.75;6312960;28;20190;-74
2021/08/31 01:56:21;;;;;;;6.07;5.35;;;;;;;13.43;88.88;102317.69;6312515;28;20187;-74
2021/08/31 01:59:25;;;;;;;7.65;6.38;;;;;;;13.47;88.61;102311.59;6311566;28;20456;-74
2021/08/31 02:02:30;;;;;;;6.40;5.78;;;;;;;13.31;89.35;102317.38;6311838;28;20199;-74
2021/08/31 02:05:34;;;;;;;9.38;6.53;;;;;;;13.40;88.77;102302.47;6312544;28;20227;-74
2021/08/31 02:08:41;;;;;;;6.40;5.80;;;;;;;13.34;89.31;102306.00;6311273;28;20192;-74
2021/08/31 02:11:46;;;;;;;11.25;6.65;;;;;;;13.33;88.69;102303.50;6311380;28;20183;-74
2021/08/31 02:14:50;;;;;;;11.52;6.68;;;;;;;13.30;88.54;102304.69;6311259;28;20437;-74
2021/08/31 02:17:54;;;;;;;8.40;5.72;;;;;;;13.26;88.94;102314.38;6312330;28;20187;-74
2021/08/31 02:21:01;;;;;;;6.55;5.75;;;;;;;13.14;89.27;102315.97;6312600;28;20184;-74
2021/08/31 02:24:06;;;;;;;8.68;6.22;;;;;;;13.26;88.49;102324.50;6311508;28;20184;-74
2021/08/31 02:27:14;;;;;;;6.43;5.85;;;;;;;13.23;88.44;102325.75;6311152;28;20561;-74
2021/08/31 02:30:18;;;;;;;7.18;6.13;;;;;;;13.31;88.10;102327.47;6311210;28;20187;-74
2021/08/31 02:33:24;;;;;;;9.35;6.03;;;;;;;13.24;88.04;102323.84;6312507;28;20183;-74
2021/08/31 02:36:28;;;;;;;6.57;5.88;;;;;;;13.23;88.01;102320.25;6311484;28;20250;-73
2021/08/31 02:39:32;;;;;;;11.65;6.10;;;;;;;13.19;87.41;102313.50;6312473;28;20246;-74
2021/08/31 02:42:38;;;;;;;8.30;5.97;;;;;;;13.13;88.03;102325.22;6312010;28;20195;-74
2021/08/31 02:45:42;;;;;;;5.90;5.30;;;;;;;13.13;88.21;102309.66;6312267;28;20215;-74
2021/08/31 02:48:47;;;;;;;7.53;5.10;;;;;;;13.12;88.14;102318.06;6316868;28;20211;-74
2021/08/31 02:51:53;;;;;;;8.15;5.68;;;;;;;13.13;87.77;102314.28;6316219;28;20188;-74
2021/08/31 02:54:57;;;;;;;8.88;5.57;;;;;;;13.14;87.50;102316.84;6317123;28;20187;-74
2021/08/31 02:58:03;;;;;;;6.20;5.20;;;;;;;13.07;87.57;102315.09;6316708;28;20232;-74
2021/08/31 03:01:28;;;;;;;9.88;5.88;;;;;;;13.12;87.23;102312.59;6316634;28;20206;-74
2021/08/31 03:04:35;;;;;;;7.45;5.47;;;;;;;13.03;87.06;102313.75;6317091;28;20239;-74
2021/08/31 03:07:39;;;;;;;6.10;5.47;;;;;;;12.99;86.89;102305.06;6316365;28;20218;-74
2021/08/31 03:10:43;;;;;;;7.22;5.93;;;;;;;13.13;86.07;102314.28;6315355;28;20547;-75
2021/08/31 03:13:50;;;;;;;5.72;5.18;;;;;;;13.15;85.78;102317.66;6316381;28;20184;-74
2021/08/31 03:16:55;;;;;;;6.25;5.50;;;;;;;13.12;85.88;102320.81;6315251;28;20534;-74
2021/08/31 03:19:59;;;;;;;6.13;5.57;;;;;;;13.05;85.94;102306.16;6316162;28;20191;-74
2021/08/31 03:23:04;;;;;;;6.43;5.43;;;;;;;12.93;86.43;102307.75;6315976;28;20191;-74
2021/08/31 03:26:08;;;;;;;6.10;5.22;;;;;;;13.08;85.89;102300.31;6316227;28;20213;-74
2021/08/31 03:29:14;;;;;;;6.53;5.45;;;;;;;13.06;85.14;102302.38;6314958;28;20419;-74
2021/08/31 03:32:18;;;;;;;6.63;5.93;;;;;;;12.93;85.47;102294.03;6316305;28;20183;-74
2021/08/31 03:35:24;;;;;;;6.78;5.22;;;;;;;13.10;84.36;102299.06;6315137;28;20277;-74
2021/08/31 03:38:28;;;;;;;6.72;6.10;;;;;;;13.09;83.85;102286.44;6316042;28;20191;-74
2021/08/31 03:41:33;;;;;;;7.18;5.75;;;;;;;12.99;84.83;102299.56;6314702;28;20498;-74
2021/08/31 03:44:39;;;;;;;5.93;5.35;;;;;;;12.93;86.26;102286.69;6315751;28;20194;-74
2021/08/31 03:47:43;;;;;;;5.65;5.18;;;;;;;12.95;83.80;102286.47;6315773;28;20310;-74
2021/08/31 03:50:47;;;;;;;5.90;5.32;;;;;;;12.99;84.72;102285.88;6315855;28;20184;-74
2021/08/31 03:53:51;;;;;;;6.43;5.43;;;;;;;13.03;84.24;102286.34;6315672;28;20238;-74
2021/08/31 03:56:55;;;;;;;7.25;5.60;;;;;;;12.97;84.91;102281.63;6315396;28;20194;-74
2021/08/31 04:00:05;;;;;;;5.63;5.20;;;;;;;13.00;83.24;102279.34;6314251;28;20251;-74
2021/08/31 04:03:18;;;;;;;5.65;5.15;;;;;;;13.00;82.92;102286.72;6314717;28;20270;-74
2021/08/31 04:06:22;;;;;;;6.90;5.40;;;;;;;13.06;82.00;102285.94;6315184;28;20206;-74
2021/08/31 04:09:29;;;;;;;5.75;5.07;;;;;;;13.03;81.94;102280.84;6315518;28;20215;-74
2021/08/31 04:12:33;;;;;;;6.32;5.18;;;;;;;13.00;80.90;102282.09;6315360;28;20191;-74
2021/08/31 04:15:39;;;;;;;5.68;5.18;;;;;;;13.08;79.92;102283.88;6314955;28;20188;-74
2021/08/31 04:18:43;;;;;;;5.93;5.38;;;;;;;12.89;79.78;102279.88;6314878;28;20187;-74
2021/08/31 04:21:50;;;;;;;5.32;4.82;;;;;;;12.88;79.37;102271.88;6315240;28;20362;-74
2021/08/31 04:24:56;;;;;;;6.50;5.20;;;;;;;12.82;79.06;102279.00;6314526;28;20187;-74
2021/08/31 04:28:00;;;;;;;7.72;5.55;;;;;;;12.88;79.10;102277.34;6314960;28;20243;-74
2021/08/31 04:31:06;;;;;;;6.00;5.40;;;;;;;12.95;79.03;102286.47;6313941;28;20183;-74
2021/08/31 04:34:11;;;;;;;7.53;5.00;;;;;;;12.92;79.20;102290.47;6314306;28;20251;-74
2021/08/31 04:37:15;;;;;;;6.78;5.47;;;;;;;12.79;80.41;102290.34;6314282;28;20187;-74
2021/08/31 04:40:20;;;;;;;7.45;4.85;;;;;;;12.85;80.67;102294.19;6313351;28;20247;-74
2021/08/31 04:43:24;;;;;;;7.00;5.47;;;;;;;12.88;80.86;102288.31;6313206;28;20467;-74
2021/08/31 04:46:29;;;;;;;6.45;5.65;;;;;;;12.89;81.54;102287.28;6313247;28;20348;-75
2021/08/31 04:49:33;;;;;;;11.32;5.32;;;;;;;12.97;81.62;102289.84;6314081;28;20207;-74
2021/08/31 04:52:38;;;;;;;5.18;4.68;;;;;;;12.92;82.18;102286.88;6314395;28;20215;-74
2021/08/31 04:55:43;;;;;;;6.07;5.47;;;;;;;12.85;83.25;102286.81;6312938;28;20552;-74
2021/08/31 04:58:47;;;;;;;5.95;5.30;;;;;;;12.94;83.39;102282.06;6312825;28;20187;-74
2021/08/31 05:01:52;;;;;;;7.50;5.30;;;;;;;12.90;84.02;102291.69;6312928;28;20407;-74
2021/08/31 05:04:58;;;;;;;5.75;4.78;;;;;;;12.98;84.95;102283.34;6312998;28;20265;-74
2021/08/31 05:08:02;;;;;;;4.95;4.43;;;;;;;13.09;84.55;102269.16;6312414;28;20466;-75
2021/08/31 05:11:07;;;;;;;6.15;4.72;;;;;;;13.07;85.33;102271.25;6312820;28;20254;-74
2021/08/31 05:14:14;;;;;;;5.70;4.22;;;;;;;13.10;86.37;102265.34;6312447;28;20192;-73
2021/08/31 05:17:20;;;;;;;5.55;4.85;;;;;;;13.06;86.98;102272.25;6313675;28;20184;-75
2021/08/31 05:20:28;;;;;;;4.13;3.72;;;;;;;13.20;86.56;102271.31;6312140;28;20446;-73
2021/08/31 05:23:32;;;;;;;4.35;4.05;;;;;;;13.25;87.15;102273.47;6313358;28;20184;-74
2021/08/31 05:26:36;;;;;;;4.35;4.05;;;;;;;13.28;87.03;102265.69;6311972;28;20475;-73
2021/08/31 05:29:40;;;;;;;4.38;3.95;;;;;;;13.39;87.16;102254.16;6311961;28;20211;-73
2021/08/31 05:32:48;;;;;;;4.30;3.95;;;;;;;13.32;88.00;102261.50;6312901;28;20187;-73
2021/08/31 05:35:53;;;;;;;4.60;4.20;;;;;;;13.32;88.22;102256.03;6311705;28;20410;-74
2021/08/31 05:38:58;;;;;;;5.05;3.40;;;;;;;13.43;87.94;102254.63;6312547;28;20194;-74
2021/08/31 05:42:04;;;;;;;5.00;3.65;;;;;;;13.36;88.13;102260.06;6312504;28;20183;-74
2021/08/31 05:45:09;;;;;;;4.63;3.90;;;;;;;13.40;88.08;102247.66;6311615;28;20254;-74
2021/08/31 05:48:15;;;;;;;4.47;3.45;;;;;;;13.42;87.72;102262.00;6311569;28;20246;-74
2021/08/31 05:51:19;;;;;;;3.72;3.00;;;;;;;13.46;87.61;102255.06;6311356;28;20370;-73
2021/08/31 05:54:25;;;;;;;3.72;3.40;;;;;;;13.56;87.44;102250.03;6312203;28;20184;-73
2021/08/31 05:57:30;;;;;;;4.50;3.47;;;;;;;13.63;87.38;102245.47;6312178;28;20191;-74
2021/08/31 06:00:34;;;;;;;8.68;3.33;;;;;;;13.65;86.74;102248.84;6312189;28;20223;-74
2021/08/31 06:03:40;;;;;;;6.10;3.40;;;;;;;13.73;86.41;102245.94;6311014;28;20321;-75
2021/08/31 06:06:44;;;;;;;3.35;3.05;;;;;;;13.74;85.95;102246.75;6311493;28;20188;-73
2021/08/31 06:09:51;;;;;;;3.22;3.00;;;;;;;13.77;86.38;102241.72;6312442;28;20419;-73
2021/08/31 06:13:00;;;;;;;4.38;3.30;;;;;;;13.69;86.30;102249.25;6312365;28;20190;-74
2021/08/31 06:16:07;;;;;;;3.83;3.53;;;;;;;13.71;85.59;102239.78;6312296;28;20220;-73
2021/08/31 06:19:12;;;;;;;7.82;2.92;;;;;;;13.82;84.60;102250.19;6311834;28;20257;-73
2021/08/31 06:22:18;;;;;;;5.45;3.95;;;;;;;13.96;84.50;102244.75;6311174;28;20203;-73
2021/08/31 06:25:22;;;;;;;3.33;3.00;;;;;;;14.01;83.57;102247.72;6311296;28;20431;-73
2021/08/31 06:28:26;;;;;;;4.00;2.90;;;;;;;13.97;83.73;102240.97;6311041;28;20510;-73
2021/08/31 06:31:31;;;;;;;2.80;2.70;;;;;;;14.08;82.88;102248.59;6312194;28;20183;-73
2021/08/31 06:34:36;;;;;;;3.00;2.80;;;;;;;14.20;83.07;102241.47;6310788;28;20183;-73
2021/08/31 06:37:43;;;;;;;2.75;2.55;;;;;;;14.24;82.62;102242.72;6312346;28;20219;-74
2021/08/31 06:40:48;;;;;;;3.50;3.28;;;;;;;14.36;82.16;102233.72;6310669;28;20255;-74
2021/08/31 06:43:53;;;;;;;2.72;2.58;;;;;;;14.51;80.62;102232.69;6310311;28;20184;-74
2021/08/31 06:46:57;;;;;;;2.90;2.78;;;;;;;14.70;80.51;102237.34;6311536;28;20190;-74
2021/08/31 06:50:03;;;;;;;2.85;2.75;;;;;;;14.76;79.37;102245.59;6312242;28;20278;-74
2021/08/31 06:53:09;;;;;;;2.90;2.70;;;;;;;14.88;79.05;102246.66;6310824;28;20184;-74
2021/08/31 06:56:16;;;;;;;2.88;2.67;;;;;;;14.93;78.46;102238.63;6312255;28;20192;-74
2021/08/31 06:59:20;;;;;;;4.10;2.78;;;;;;;15.09;78.35;102226.34;6311877;28;20196;-74
2021/08/31 07:02:27;;;;;;;3.10;2.80;;;;;;;15.30;77.88;102239.00;6311225;28;20392;-74
2021/08/31 07:05:33;;;;;;;5.18;2.90;;;;;;;15.43;76.80;102239.00;6312476;28;20305;-74
2021/08/31 07:08:39;;;;;;;2.33;2.33;;;;;;;15.41;76.36;102243.84;6312167;28;20206;-74
2021/08/31 07:11:43;;;;;;;3.33;2.20;;;;;;;15.51;75.11;102241.53;6312214;28;20215;-74
2021/08/31 07:14:48;;;;;;;2.95;2.75;;;;;;;15.61;75.63;102242.75;6310368;28;20503;-74
2021/08/31 07:17:52;;;;;;;3.08;2.80;;;;;;;15.57;74.73;102240.66;6312208;28;20258;-74
2021/08/31 07:20:58;;;;;;;2.78;2.40;;;;;;;15.48;74.79;102236.47;6310968;28;20356;-74
2021/08/31 07:24:05;;;;;;;4.13;2.40;;;;;;;15.51;75.31;102236.03;6310815;28;20258;-73
2021/08/31 07:27:09;;;;;;;1.98;1.95;;;;;;;15.50;74.96;102239.84;6311421;28;20215;-73
2021/08/31 07:30:14;;;;;;;2.80;2.40;;;;;;;15.50;74.75;102240.69;6310408;28;20365;-73
2021/08/31 07:33:18;;;;;;;2.67;2.50;;;;;;;15.45;73.96;102237.75;6312052;28;20187;-73
2021/08/31 07:36:24;;;;;;;3.33;2.45;;;;;;;15.54;74.15;102236.44;6316202;28;20278;-74
2021/08/31 07:39:28;;;;;;;2.63;2.42;;;;;;;15.52;73.88;102226.72;6314863;28;20187;-73
2021/08/31 07:42:33;;;;;;;2.38;2.30;;;;;;;15.39;74.06;102226.72;6314741;28;20254;-74
2021/08/31 07:45:39;;;;;;;2.20;2.10;;;;;;;15.52;74.37;102234.97;6315284;28;20190;-73
2021/08/31 07:48:43;;;;;;;43.13;3.33;;;;;;;15.54;74.09;102241.09;6314434;28;20413;-73
2021/08/31 07:51:49;;;;;;;2.53;2.33;;;;;;;15.71;74.10;102225.81;6315751;28;20243;-74
2021/08/31 07:54:55;;;;;;;3.03;2.33;;;;;;;15.78;74.36;102225.78;6315964;28;20187;-72
2021/08/31 07:57:59;;;;;;;2.47;2.20;;;;;;;15.89;73.68;102228.72;6315334;28;20230;-71
2021/08/31 08:01:04;;;;;;;2.10;2.00;;;;;;;15.98;72.45;102237.53;6315228;28;20199;-72
2021/08/31 08:04:10;;;;;;;3.47;2.15;;;;;;;16.08;72.70;102222.25;6315046;28;20227;-72
2021/08/31 08:07:16;;;;;;;2.53;2.33;;;;;;;16.04;72.81;102237.53;6313959;28;20467;-72
2021/08/31 08:10:21;;;;;;;2.78;2.55;;;;;;;15.99;71.67;102229.06;6314243;28;20211;-73
2021/08/31 08:13:25;;;;;;;2.10;2.00;;;;;;;16.02;72.70;102228.63;6313882;28;20492;-74
2021/08/31 08:16:29;;;;;;;3.15;2.05;;;;;;;15.99;72.75;102219.97;6315249;28;20215;-74
2021/08/31 08:19:34;;;;;;;1.80;1.80;;;;;;;16.02;72.51;102225.03;6314218;28;20254;-74
2021/08/31 08:22:39;;;;;;;2.03;2.03;;;;;;;16.02;71.70;102234.13;6314842;28;20214;-74
2021/08/31 08:25:44;;;;;;;2.38;2.28;;;;;;;16.02;71.24;102223.09;6314956;28;20221;-74
2021/08/31 08:29:01;;;;;;;1.85;1.85;;;;;;;16.05;72.33;102217.16;6314854;28;20192;-74
2021/08/31 08:32:09;;;;;;;2.33;2.22;;;;;;;15.97;71.01;102217.41;6314616;28;20286;-74
2021/08/31 08:35:13;;;;;;;2.05;1.95;;;;;;;16.02;70.89;102225.84;6314104;28;20184;-74
2021/08/31 08:38:20;;;;;;;3.05;2.15;;;;;;;16.13;71.19;102218.81;6314379;28;20183;-74
2021/08/31 08:41:24;;;;;;;2.83;2.60;;;;;;;16.16;70.05;102218.38;6313267;28;20187;-73
2021/08/31 08:44:33;;;;;;;2.53;2.30;;;;;;;16.17;70.79;102215.44;6314245;28;20241;-74
2021/08/31 08:47:37;;;;;;;3.40;2.17;;;;;;;16.21;70.39;102219.41;6314402;28;20215;-74
2021/08/31 08:50:41;;;;;;;2.47;2.28;;;;;;;16.24;71.10;102220.88;6314001;28;20298;-74
2021/08/31 08:53:50;;;;;;;4.60;2.80;;;;;;;16.26;70.69;102219.59;6314053;28;20184;-74
2021/08/31 08:56:56;;;;;;;2.80;2.60;;;;;;;16.31;71.27;102227.19;6314033;28;20184;-74
2021/08/31 09:00:00;;;;;;;3.50;2.45;;;;;;;16.38;70.65;102217.00;6314212;28;20187;-74
2021/08/31 09:03:18;;;;;;;2.47;2.28;;;;;;;16.39;69.33;102220.56;6313274;28;20356;-74
2021/08/31 09:06:26;;;;;;;1.73;1.73;;;;;;;16.33;67.99;102218.72;6313972;28;20184;-74
2021/08/31 09:09:35;;;;;;;2.20;2.20;;;;;;;16.33;66.91;102224.22;6312865;28;20263;-74
2021/08/31 09:12:40;;;;;;;2.53;2.42;;;;;;;16.36;66.01;102215.53;6312302;28;20518;-74
2021/08/31 09:15:44;;;;;;;2.53;2.33;;;;;;;16.42;65.67;102217.38;6313516;28;20238;-74
2021/08/31 09:18:53;;;;;;;2.53;2.33;;;;;;;16.38;65.44;102216.16;6312249;28;20188;-74
2021/08/31 09:22:12;;;;;;;2.35;2.25;;;;;;;16.45;65.14;102222.44;6312379;28;20187;-73
2021/08/31 09:25:33;;;;;;;2.65;2.55;;;;;;;16.57;64.82;102215.19;6314147;28;20183;-73
2021/08/31 09:28:40;;;;;;;2.58;2.38;;;;;;;16.65;65.14;102217.66;6313652;28;20183;-73
2021/08/31 09:31:47;;;;;;;2.45;2.35;;;;;;;16.71;64.40;102217.63;6313938;28;20218;-73
2021/08/31 09:34:53;;;;;;;3.10;2.58;;;;;;;16.73;64.47;102215.47;6313445;28;20187;-73
2021/08/31 09:38:01;;;;;;;2.42;2.33;;;;;;;16.77;64.03;102210.34;6314229;28;20237;-72
2021/08/31 09:41:06;;;;;;;2.55;2.35;;;;;;;16.77;63.44;102216.72;6313112;28;20533;-74
2021/08/31 09:44:22;;;;;;;2.17;2.08;;;;;;;16.83;62.55;102203.94;6312604;28;20419;-74
2021/08/31 09:47:33;;;;;;;1.95;1.95;;;;;;;16.85;62.94;102201.81;6313438;28;20205;-74
2021/08/31 09:50:40;;;;;;;2.30;2.20;;;;;;;16.88;61.85;102207.72;6313989;28;20314;-73
2021/08/31 09:53:44;;;;;;;2.00;2.00;;;;;;;16.90;62.22;102201.97;6313585;28;20184;-74
2021/08/31 09:56:50;;;;;;;2.33;2.22;;;;;;;16.88;61.70;102193.09;6311575;28;20277;-76
2021/08/31 10:00:15;;;;;;;2.45;2.20;;;;;;;16.86;62.14;102203.50;6311779;28;20191;-74
2021/08/31 10:03:23;;;;;;;2.42;2.30;;;;;;;16.76;62.17;102192.13;6290942;28;20203;-76
2021/08/31 10:06:27;;;;;;;2.30;2.20;;;;;;;16.75;61.67;102184.94;6285986;28;20529;-75
2021/08/31 10:09:33;;;;;;;2.53;2.35;;;;;;;16.84;61.68;102178.09;6298953;28;20191;-74
2021/08/31 10:12:40;;;;;;;2.60;2.42;;;;;;;17.04;61.86;102184.25;6302687;28;20368;-75
2021/08/31 10:15:47;;;;;;;2.53;2.40;;;;;;;17.14;62.27;102180.97;6303817;28;20187;-76
2021/08/31 10:18:52;;;;;;;2.60;2.50;;;;;;;17.04;61.16;102184.25;6302380;28;20250;-74
2021/08/31 10:21:56;;;;;;;2.40;2.22;;;;;;;17.09;61.44;102187.16;6302780;28;20371;-73
2021/08/31 10:25:01;;;;;;;2.20;2.10;;;;;;;17.11;61.29;102176.75;6296108;28;20258;-74
2021/08/31 10:28:22;;;;;;;2.45;2.35;;;;;;;17.18;60.64;102173.94;6303149;28;20184;-73
2021/08/31 10:31:29;;;;;;;2.22;2.22;;;;;;;17.15;60.12;102189.03;6300393;28;20407;-73
2021/08/31 10:34:42;;;;;;;2.42;2.33;;;;;;;17.12;59.31;102175.69;6294900;28;20187;-74
2021/08/31 10:37:48;;;;;;;2.38;2.20;;;;;;;17.16;59.51;102176.91;6294492;28;20188;-75
2021/08/31 10:40:52;;;;;;;2.00;2.00;;;;;;;17.32;59.97;102187.34;6301143;28;20426;-74
2021/08/31 10:43:58;;;;;;;2.10;2.00;;;;;;;17.26;59.08;102166.19;6304693;28;20188;-74
2021/08/31 10:47:20;;;;;;;2.20;2.10;;;;;;;17.31;58.95;102169.09;6300102;28;20196;-74
2021/08/31 10:50:26;;;;;;;2.88;2.30;;;;;;;17.41;58.65;102172.16;6286237;28;20223;-74
2021/08/31 10:53:40;;;;;;;2.05;2.00;;;;;;;17.46;59.04;102172.31;6294952;28;20203;-74
2021/08/31 10:56:45;;;;;;;2.05;1.98;;;;;;;17.48;58.66;102174.84;6300937;28;20184;-73
2021/08/31 10:59:50;;;;;;;2.45;2.08;;;;;;;17.49;58.27;102160.81;6289314;28;20234;-75
2021/08/31 11:02:57;;;;;;;2.70;2.40;;;;;;;17.44;58.04;102174.47;6296738;28;20235;-75
2021/08/31 11:06:29;;;;;;;2.47;2.28;;;;;;;17.57;58.36;102179.00;6310659;28;20235;-74
2021/08/31 11:09:34;;;;;;;2.30;2.20;;;;;;;17.68;58.08;102180.16;6309739;28;20185;-74
2021/08/31 11:12:40;;;;;;;2.47;2.38;;;;;;;17.66;57.87;102168.50;6291246;28;20216;-74
2021/08/31 11:15:49;;;;;;;2.95;2.80;;;;;;;17.68;57.60;102174.63;6290443;28;20372;-75
2021/08/31 11:18:53;;;;;;;3.95;2.20;;;;;;;17.74;56.83;102163.53;6291291;28;20223;-74
2021/08/31 11:21:58;;;;;;;2.70;2.60;;;;;;;17.81;56.68;102155.97;6291846;28;20195;-74
2021/08/31 11:25:02;;;;;;;2.60;2.40;;;;;;;17.74;56.91;102168.19;6291962;28;20184;-75
2021/08/31 11:28:08;;;;;;;2.47;2.25;;;;;;;17.76;56.86;102160.50;6290140;28;20499;-74
2021/08/31 11:31:22;;;;;;;2.53;2.42;;;;;;;17.87;56.92;102156.97;6290970;28;20222;-74
2021/08/31 11:34:27;;;;;;;2.35;2.03;;;;;;;17.91;56.93;102147.13;6235474;28;20319;-74
2021/08/31 11:37:31;;;;;;;2.20;2.10;;;;;;;17.96;57.45;102164.69;6240346;28;20300;-74
2021/08/31 11:40:35;;;;;;;2.50;2.30;;;;;;;17.93;56.04;102156.03;6240416;28;20410;-74
2021/08/31 11:43:39;;;;;;;2.40;2.30;;;;;;;18.03;55.91;102134.22;6241561;28;20221;-77
2021/08/31 11:46:49;;;;;;;2.67;2.40;;;;;;;17.97;56.13;102146.22;6241067;28;20258;-74
2021/08/31 11:50:01;;;;;;;2.53;2.33;;;;;;;18.06;55.79;102128.22;6241283;28;20216;-74
2021/08/31 11:53:17;;;;;;;2.20;2.10;;;;;;;17.96;56.85;102144.50;6241152;28;20219;-74
2021/08/31 11:56:23;;;;;;;2.53;2.42;;;;;;;17.96;55.74;102141.75;6240815;28;20232;-74
2021/08/31 11:59:41;;;;;;;2.65;2.28;;;;;;;17.84;55.45;102141.72;6240002;28;20477;-74
2021/08/31 12:02:47;;;;;;;2.45;2.22;;;;;;;17.77;55.93;102137.38;6239369;28;20212;-75
2021/08/31 12:05:56;;;;;;;2.22;2.22;;;;;;;17.81;56.36;102141.34;6263403;28;20236;-74
2021/08/31 12:09:00;;;;;;;5.25;2.28;;;;;;;17.93;56.24;102150.50;6264345;28;20446;-74
2021/08/31 12:12:06;;;;;;;4.30;2.25;;;;;;;17.96;55.67;102139.00;6264249;28;20416;-75
2021/08/31 12:15:12;;;;;;;2.00;2.00;;;;;;;18.10;55.42;102140.50;6265238;28;20223;-74
2021/08/31 12:18:19;;;;;;;2.45;2.30;;;;;;;18.03;55.33;102123.16;6265384;28;20185;-75
2021/08/31 12:21:25;;;;;;;2.22;2.13;;;;;;;18.06;55.60;102128.22;6265338;28;20224;-75
2021/08/31 12:24:29;;;;;;;1.98;1.92;;;;;;;18.07;55.65;102140.97;6264272;28;20200;-75
2021/08/31 12:27:44;;;;;;;2.28;2.17;;;;;;;18.06;55.79;102142.03;6264943;28;20220;-75
2021/08/31 12:30:51;;;;;;;2.33;2.22;;;;;;;18.12;54.45;102132.81;6264699;28;20185;-74
2021/08/31 12:33:57;;;;;;;2.30;2.20;;;;;;;18.10;54.60;102134.97;6264561;28;20213;-74
2021/08/31 12:37:23;;;;;;;2.90;2.20;;;;;;;18.15;53.49;102133.16;6263733;28;20185;-75
2021/08/31 12:40:27;;;;;;;2.20;2.00;;;;;;;18.26;54.33;102134.28;6265197;28;20287;-74
2021/08/31 12:43:44;;;;;;;2.53;2.22;;;;;;;18.25;54.36;102132.59;6264872;28;20189;-74
2021/08/31 12:46:50;;;;;;;2.40;2.20;;;;;;;18.27;54.78;102141.50;6263692;28;20492;-74
2021/08/31 12:50:07;;;;;;;2.55;2.45;;;;;;;18.12;54.11;102127.28;6263350;28;20500;-74
2021/08/31 12:53:12;;;;;;;2.63;2.20;;;;;;;18.24;54.17;102136.44;6263151;28;20397;-74
2021/08/31 12:56:16;;;;;;;2.47;1.90;;;;;;;18.32;53.82;102133.34;6263227;28;20185;-74
2021/08/31 12:59:36;;;;;;;2.28;2.13;;;;;;;18.29;54.00;102136.56;6264167;28;20185;-74
2021/08/31 13:02:40;;;;;;;2.63;2.50;;;;;;;18.34;54.06;102145.00;6264505;28;20251;-74
2021/08/31 13:05:46;;;;;;;2.45;2.25;;;;;;;18.41;54.13;102137.44;6263408;28;20274;-74
2021/08/31 13:08:50;;;;;;;2.25;2.15;;;;;;;18.35;53.22;102143.91;6263069;28;20501;-75
2021/08/31 13:11:54;;;;;;;2.67;2.53;;;;;;;18.24;53.87;102141.97;6263087;28;20527;-74
2021/08/31 13:14:59;;;;;;;3.00;2.03;;;;;;;18.24;54.29;102141.97;6262873;28;20401;-74
2021/08/31 13:18:04;;;;;;;4.00;1.90;;;;;;;18.26;53.23;102145.31;6262929;28;20207;-74
2021/08/31 13:21:10;;;;;;;2.97;2.20;;;;;;;18.28;53.23;102132.16;6264024;28;20216;-74
2021/08/31 13:24:15;;;;;;;2.30;2.20;;;;;;;18.27;53.57;102130.44;6262701;28;20256;-74
2021/08/31 13:27:19;;;;;;;2.10;2.00;;;;;;;18.09;53.49;102127.75;6263957;28;20216;-74
2021/08/31 13:30:25;;;;;;;1.98;1.98;;;;;;;18.15;53.63;102127.63;6261721;28;20270;-74
2021/08/31 13:33:29;;;;;;;2.25;2.22;;;;;;;18.19;53.59;102133.53;6262271;28;20262;-74
2021/08/31 13:36:35;;;;;;;6.90;2.10;;;;;;;18.23;53.16;102134.78;6262342;28;20216;-74
2021/08/31 13:39:39;;;;;;;2.53;2.42;;;;;;;18.13;53.24;102134.47;6263594;28;20248;-75
2021/08/31 13:42:44;;;;;;;2.20;2.00;;;;;;;18.14;53.86;102141.69;6263089;28;20193;-75
2021/08/31 13:45:48;;;;;;;2.88;2.50;;;;;;;18.19;53.96;102144.59;6262623;28;20252;-75
2021/08/31 13:48:53;;;;;;;5.30;2.22;;;;;;;18.17;54.57;102141.22;6262169;28;20481;-74
2021/08/31 13:51:58;;;;;;;2.05;1.95;;;;;;;18.06;53.66;102133.75;6263216;28;20193;-75
2021/08/31 13:55:02;;;;;;;1.90;1.88;;;;;;;18.08;54.04;102134.34;6262912;28;20231;-74
2021/08/31 13:58:12;;;;;;;1.95;1.88;;;;;;;18.07;53.77;102129.91;6261816;28;20319;-75
2021/08/31 14:01:16;;;;;;;2.08;2.08;;;;;;;18.14;54.94;102147.22;6261990;28;20486;-75
2021/08/31 14:04:21;;;;;;;5.13;2.05;;;;;;;18.06;53.42;102122.69;6262324;28;20240;-74
2021/08/31 14:07:26;;;;;;;6.40;2.35;;;;;;;18.15;53.80;102126.81;6262972;28;20231;-75
2021/08/31 14:10:30;;;;;;;4.20;2.00;;;;;;;18.14;53.60;102125.13;6262839;28;20260;-75
2021/08/31 14:13:34;;;;;;;2.75;2.55;;;;;;;18.17;53.75;102118.28;6261697;28;20240;-75
2021/08/31 14:16:38;;;;;;;2.47;2.20;;;;;;;18.23;54.06;102107.16;6262836;28;20251;-74
2021/08/31 14:19:45;;;;;;;3.50;2.30;;;;;;;18.07;54.18;102111.44;6262628;28;20257;-74
2021/08/31 14:22:51;;;;;;;2.20;2.00;;;;;;;18.12;53.98;102096.91;6261452;28;20477;-75
2021/08/31 14:25:55;;;;;;;2.13;2.13;;;;;;;18.19;54.44;102100.41;6262320;28;20248;-73